createdAt,value
2024-03-16T00:02:21.169Z,14.78
2024-03-16T00:04:48.187Z,14.23
2024-03-16T00:07:15.081Z,14.48
2024-03-16T00:09:41.981Z,14.57
2024-03-16T00:12:08.953Z,14.60
2024-03-16T00:14:35.834Z,14.47
2024-03-16T00:17:02.854Z,14.69
2024-03-16T00:19:30.007Z,14.39
2024-03-16T00:21:57.226Z,15.08
2024-03-16T00:24:24.075Z,14.60
2024-03-16T00:26:51.427Z,15.33
2024-03-16T00:29:18.925Z,14.79
2024-03-16T00:31:48.308Z,15.10
2024-03-16T00:34:15.495Z,14.52
2024-03-16T00:36:42.314Z,14.73
2024-03-16T00:39:16.975Z,14.84
2024-03-16T00:41:44.389Z,14.79
2024-03-16T00:44:11.587Z,14.58
2024-03-16T00:46:38.562Z,14.77
2024-03-16T00:49:05.470Z,14.35
2024-03-16T00:51:34.405Z,14.09
2024-03-16T00:54:01.385Z,14.55
2024-03-16T00:56:28.273Z,14.13
2024-03-16T00:58:55.150Z,13.94
2024-03-16T01:01:23.374Z,13.95
2024-03-16T01:03:50.223Z,14.03
2024-03-16T01:06:17.564Z,14.10
2024-03-16T01:08:44.424Z,14.34
2024-03-16T01:11:11.237Z,14.13
2024-03-16T01:13:38.116Z,14.13
2024-03-16T01:16:05.512Z,13.82
2024-03-16T01:18:32.299Z,14.65
2024-03-16T01:20:59.198Z,14.48
2024-03-16T01:23:26.031Z,14.74
2024-03-16T01:25:53.183Z,14.00
2024-03-16T01:28:19.927Z,14.28
2024-03-16T01:30:46.710Z,14.34
2024-03-16T01:33:13.482Z,14.42
2024-03-16T01:35:40.397Z,14.20
2024-03-16T01:38:07.156Z,14.20
2024-03-16T01:40:34.009Z,14.64
2024-03-16T01:43:01.195Z,14.36
2024-03-16T01:45:29.322Z,14.58
2024-03-16T01:47:56.905Z,14.07
2024-03-16T01:50:23.807Z,14.17
2024-03-16T01:52:50.842Z,14.14
2024-03-16T01:55:18.244Z,14.12
2024-03-16T01:57:45.676Z,14.37
2024-03-16T02:00:13.372Z,14.94
2024-03-16T02:02:40.606Z,14.31
2024-03-16T02:05:08.416Z,14.82
2024-03-16T02:07:38.463Z,14.00
2024-03-16T02:10:06.742Z,13.94
2024-03-16T02:12:34.176Z,14.06
2024-03-16T02:15:01.232Z,14.78
2024-03-16T02:17:28.817Z,14.47
2024-03-16T02:19:55.978Z,14.93
2024-03-16T02:22:24.827Z,14.95
2024-03-16T02:24:51.768Z,14.16
2024-03-16T02:27:18.686Z,14.58
2024-03-16T02:29:45.513Z,14.04
2024-03-16T02:32:12.670Z,14.36
2024-03-16T02:34:39.740Z,13.96
2024-03-16T02:37:07.301Z,14.39
2024-03-16T02:39:34.507Z,13.70
2024-03-16T02:42:05.563Z,13.94
2024-03-16T02:44:32.994Z,14.14
2024-03-16T02:47:00.225Z,14.61
2024-03-16T02:49:27.135Z,13.78
2024-03-16T02:51:54.573Z,14.24
2024-03-16T02:54:22.276Z,14.12
2024-03-16T02:56:49.375Z,14.03
2024-03-16T02:59:16.675Z,14.21
2024-03-16T03:01:43.476Z,14.43
2024-03-16T03:04:16.065Z,14.46
2024-03-16T03:06:44.316Z,14.26
2024-03-16T03:09:11.324Z,14.35
2024-03-16T03:11:38.980Z,13.88
2024-03-16T03:14:07.776Z,14.20
2024-03-16T03:16:34.807Z,13.93
2024-03-16T03:19:01.675Z,14.46
2024-03-16T03:21:30.326Z,14.38
2024-03-16T03:23:57.942Z,14.16
2024-03-16T03:26:25.159Z,14.01
2024-03-16T03:28:52.471Z,14.55
2024-03-16T03:31:19.872Z,14.51
2024-03-16T03:33:47.487Z,14.82
2024-03-16T03:36:14.436Z,14.57
2024-03-16T03:38:41.323Z,14.29
2024-03-16T03:41:09.422Z,13.97
2024-03-16T03:43:38.674Z,14.01
2024-03-16T03:46:06.489Z,13.86
2024-03-16T03:48:43.161Z,14.24
2024-03-16T03:51:10.543Z,14.28
2024-03-16T03:53:37.430Z,14.18
2024-03-16T03:56:04.488Z,14.18
2024-03-16T03:58:31.293Z,14.58
2024-03-16T04:00:58.173Z,14.46
2024-03-16T04:03:24.885Z,13.63
2024-03-16T04:05:53.212Z,13.53
2024-03-16T04:08:20.306Z,14.00
2024-03-16T04:10:47.228Z,13.56
2024-03-16T04:13:14.505Z,13.94
2024-03-16T04:15:41.428Z,13.94
2024-03-16T04:18:08.276Z,13.85
2024-03-16T04:20:35.306Z,13.61
2024-03-16T04:23:03.131Z,13.23
2024-03-16T04:25:30.272Z,13.59
2024-03-16T04:27:58.232Z,13.84
2024-03-16T04:30:25.066Z,13.76
2024-03-16T04:32:51.859Z,13.65
2024-03-16T04:35:18.741Z,13.83
2024-03-16T04:37:46.493Z,13.81
2024-03-16T04:40:13.464Z,13.48
2024-03-16T04:42:40.468Z,13.81
2024-03-16T04:45:07.897Z,13.46
2024-03-16T04:47:34.716Z,13.37
2024-03-16T04:50:02.001Z,13.51
2024-03-16T04:52:28.927Z,13.49
2024-03-16T04:54:55.750Z,13.51
2024-03-16T04:57:22.736Z,13.70
2024-03-16T04:59:49.673Z,13.39
2024-03-16T05:02:16.362Z,13.14
2024-03-16T05:04:43.256Z,13.42
2024-03-16T05:07:10.274Z,13.39
2024-03-16T05:09:38.044Z,13.86
2024-03-16T05:12:05.567Z,13.98
2024-03-16T05:14:33.184Z,13.55
2024-03-16T05:16:59.990Z,13.29
2024-03-16T05:19:27.016Z,13.73
2024-03-16T05:21:53.843Z,13.63
2024-03-16T05:24:20.924Z,13.60
2024-03-16T05:26:48.462Z,13.69
2024-03-16T05:29:15.851Z,13.33
2024-03-16T05:31:58.025Z,13.57
2024-03-16T05:34:25.470Z,13.25
2024-03-16T05:36:52.743Z,13.41
2024-03-16T05:39:20.531Z,13.56
2024-03-16T05:41:47.793Z,13.30
2024-03-16T05:44:14.830Z,13.52
2024-03-16T05:46:42.244Z,13.88
2024-03-16T05:49:09.413Z,13.29
2024-03-16T05:51:36.367Z,13.32
2024-03-16T05:54:05.533Z,13.30
2024-03-16T05:56:33.897Z,13.45
2024-03-16T05:59:01.586Z,13.20
2024-03-16T06:01:29.172Z,13.25
2024-03-16T06:03:56.775Z,13.63
2024-03-16T06:06:23.653Z,13.51
2024-03-16T06:08:50.481Z,13.64
2024-03-16T06:11:17.504Z,13.62
2024-03-16T06:13:45.784Z,13.66
2024-03-16T06:16:12.903Z,13.81
2024-03-16T06:18:41.684Z,13.63
2024-03-16T06:21:11.274Z,13.67
2024-03-16T06:23:38.741Z,13.44
2024-03-16T06:26:07.721Z,13.34
2024-03-16T06:28:38.339Z,13.63
2024-03-16T06:31:10.383Z,13.91
2024-03-16T06:33:38.283Z,13.86
2024-03-16T06:36:05.525Z,14.16
2024-03-16T06:38:32.453Z,13.78
2024-03-16T06:40:59.552Z,13.58
2024-03-16T06:43:26.748Z,13.27
2024-03-16T06:45:53.587Z,13.40
2024-03-16T06:48:22.668Z,13.70
2024-03-16T06:50:50.643Z,13.79
2024-03-16T06:53:17.660Z,14.04
2024-03-16T06:55:55.360Z,13.27
2024-03-16T06:58:22.845Z,14.00
2024-03-16T07:00:49.982Z,13.53
2024-03-16T07:03:17.125Z,13.68
2024-03-16T07:05:44.521Z,14.03
2024-03-16T07:08:20.202Z,14.24
2024-03-16T07:10:48.172Z,14.03
2024-03-16T07:14:19.200Z,13.84
2024-03-16T07:16:45.961Z,13.54
2024-03-16T07:19:13.208Z,13.85
2024-03-16T07:21:40.191Z,13.77
2024-03-16T07:24:11.046Z,13.82
2024-03-16T07:26:38.033Z,13.95
2024-03-16T07:29:05.112Z,13.80
2024-03-16T07:31:32.545Z,13.52
2024-03-16T07:34:02.413Z,13.05
2024-03-16T07:36:37.336Z,12.94
2024-03-16T07:39:09.809Z,13.08
2024-03-16T07:41:37.181Z,12.94
2024-03-16T07:44:04.359Z,12.91
2024-03-16T07:46:31.271Z,13.22
2024-03-16T07:49:02.269Z,12.59
2024-03-16T07:51:32.940Z,13.22
2024-03-16T07:54:01.627Z,13.30
2024-03-16T07:56:28.393Z,13.27
2024-03-16T07:58:55.303Z,13.27
2024-03-16T08:01:24.589Z,13.33
2024-03-16T08:03:51.677Z,13.20
2024-03-16T08:06:18.538Z,13.69
2024-03-16T08:08:45.578Z,13.33
2024-03-16T08:11:12.883Z,13.37
2024-03-16T08:13:39.846Z,13.35
2024-03-16T08:16:07.533Z,13.94
2024-03-16T08:18:34.384Z,12.97
2024-03-16T08:21:01.340Z,13.52
2024-03-16T08:23:29.446Z,13.35
2024-03-16T08:25:56.855Z,13.66
2024-03-16T08:28:23.676Z,13.71
2024-03-16T08:30:50.410Z,13.78
2024-03-16T08:33:17.284Z,13.60
2024-03-16T08:35:44.689Z,13.76
2024-03-16T08:38:11.456Z,14.47
2024-03-16T08:40:38.171Z,14.39
2024-03-16T08:43:05.069Z,15.13
2024-03-16T08:45:31.982Z,15.18
2024-03-16T08:47:58.862Z,14.71
2024-03-16T08:50:25.652Z,14.64
2024-03-16T08:52:52.508Z,14.77
2024-03-16T08:55:21.159Z,14.55
2024-03-16T08:57:48.150Z,14.77
2024-03-16T09:00:17.945Z,14.66
2024-03-16T09:02:48.214Z,14.72
2024-03-16T09:05:15.232Z,14.61
2024-03-16T09:07:42.751Z,14.82
2024-03-16T09:10:12.490Z,14.14
2024-03-16T09:12:40.423Z,14.31
2024-03-16T09:15:07.661Z,14.43
2024-03-16T09:17:34.724Z,14.46
2024-03-16T09:20:12.274Z,14.04
2024-03-16T09:22:39.486Z,14.65
2024-03-16T09:25:12.810Z,14.84
2024-03-16T09:27:39.871Z,14.29
2024-03-16T09:30:18.822Z,13.94
2024-03-16T09:32:46.319Z,13.76
2024-03-16T09:35:13.609Z,13.59
2024-03-16T09:37:41.011Z,14.06
2024-03-16T09:40:11.771Z,13.88
2024-03-16T09:42:39.768Z,13.97
